Date,TemperatureHighF,TemperatureAvgF,TemperatureLowF,DewpointHighF,DewpointAvgF,DewpointLowF,HumidityHigh,HumidityAvg,HumidityLow,PressureMaxIn,PressureMinIn,WindSpeedMaxMPH,WindSpeedAvgMPH,GustSpeedMaxMPH,PrecipitationSumIn
2013-1-2,59.8,52.4,41.8,15.8,11.5,7.4,33,19,13,29.65,29.53,20,12,26,0.00
2013-1-3,62.3,51.5,43.2,16.0,10.9,5.2,32,20,11,29.68,29.53,21,12,28,0.00
2013-1-4,62.5,49.1,36.5,16.1,11.5,6.9,31,22,14,29.80,29.68,14,6,17,0.00
2013-1-5,62.3,47.6,34.3,16.8,13.0,9.6,38,25,14,29.83,29.68,8,4,11,0.00
2013-1-6,64.6,50.4,38.8,32.5,20.9,12.3,56,32,15,29.68,29.44,16,5,21,0.00
2013-1-7,63.0,51.8,40.1,33.2,25.7,15.3,68,40,20,29.50,29.38,22,8,28,0.00
2013-1-8,71.2,58.6,42.6,26.7,18.1,12.6,32,21,11,29.59,29.41,23,9,30,0.00
2013-1-9,72.9,59.2,47.4,26.6,24.7,23.1,40,27,15,29.65,29.44,10,4,12,0.00
2013-1-10,64.1,53.6,48.1,41.5,27.0,22.0,46,35,25,29.44,29.29,26,10,34,0.00
2013-1-11,54.8,46.4,35.4,28.5,16.4,6.0,55,31,15,29.62,29.44,20,5,25,0.00
2013-1-12,53.5,43.4,34.1,17.9,9.8,2.8,42,26,15,29.62,29.50,18,6,22,0.00
2013-1-13,52.8,41.6,29.1,4.7,2.1,-0.4,31,19,11,29.68,29.53,14,6,20,0.00
2013-1-14,47.5,39.9,34.2,5.4,-0.5,-4.6,25,18,11,29.77,29.62,27,16,38,0.00
2013-1-15,51.6,45.3,36.6,8.9,2.4,-3.8,25,16,11,29.97,29.85,22,10,27,0.00
2013-1-16,61.0,49.2,37.3,18.5,14.7,8.4,34,25,18,29.88,29.71,19,10,23,0.00
2013-1-17,69.5,55.6,44.1,19.6,17.7,16.0,36,23,13,29.77,29.62,23,12,29,0.00
2013-1-18,71.9,59.4,49.1,18.6,17.0,15.7,26,19,12,29.71,29.59,20,12,23,0.00
2013-1-19,72.2,60.2,48.0,18.6,17.4,16.5,28,19,12,29.74,29.59,18,12,23,0.00
2013-1-22,76.8,66.3,52.7,15.5,12.7,9.1,18,12,9,29.65,29.53,14,6,16,0.00
2013-1-23,78.3,63.2,48.9,25.6,18.6,11.8,25,18,11,29.65,29.53,9,4,11,0.00
2013-1-24,71.5,64.1,59.0,47.3,40.3,24.7,63,43,22,29.68,29.56,13,6,16,0.00
2013-1-25,70.2,61.6,57.1,57.1,50.7,43.3,97,69,44,29.65,29.44,14,7,18,0.51
2013-1-26,61.3,58.0,56.5,57.3,56.3,55.0,97,94,85,29.44,29.38,12,5,14,0.20
2013-1-27,68.4,59.5,52.3,57.4,53.1,36.5,96,80,51,29.50,29.38,15,5,18,0.16
2013-1-28,59.9,51.1,43.5,39.6,35.6,24.9,81,56,31,29.59,29.44,23,8,28,0.00
2013-1-29,60.2,49.2,37.7,41.2,34.0,24.2,91,58,31,29.71,29.59,13,4,16,0.00
2013-1-30,65.8,53.1,40.2,40.3,36.1,28.7,87,56,25,29.85,29.71,12,4,14,0.00
2013-1-31,70.8,55.6,42.5,40.8,37.0,33.1,81,53,25,29.77,29.59,16,6,21,0.00
2013-2-1,74.7,59.0,44.5,44.0,38.1,32.8,76,49,22,29.71,29.59,7,3,11,0.00
2013-2-2,76.2,63.1,49.9,42.6,37.3,32.8,70,41,21,29.74,29.59,13,5,16,0.00
2013-2-3,74.1,65.1,58.6,47.3,40.1,33.6,65,41,25,29.59,29.44,17,8,21,0.00
2013-2-4,76.0,63.1,50.7,44.3,38.8,31.9,74,44,20,29.53,29.41,14,5,24,0.00
2013-2-5,78.3,64.2,49.3,40.5,35.8,24.0,69,38,14,29.50,29.38,11,3,13,0.00
2013-2-6,74.9,64.4,52.6,41.4,37.6,28.0,61,38,17,29.50,29.35,14,4,19,0.00
2013-2-7,74.6,62.1,48.4,47.4,37.6,21.4,82,46,13,29.56,29.38,12,4,16,0.00
2013-2-8,63.8,56.4,48.6,40.8,31.9,22.8,72,41,21,29.44,29.32,25,11,30,0.01
2013-2-9,60.3,51.3,42.8,35.4,29.7,23.4,70,45,24,29.53,29.32,18,8,23,0.00
2013-2-10,96.6,50.7,39.3,33.0,29.4,24.7,71,45,25,29.53,29.44,15,5,29,0.54
2013-2-11,58.8,49.1,39.2,33.0,25.1,13.7,73,42,17,29.68,29.47,23,8,28,0.00
2013-2-12,61.0,49.6,35.9,18.9,13.4,7.6,46,25,12,29.80,29.68,16,6,23,0.00
2013-2-13,67.0,53.3,38.0,24.6,18.9,13.8,44,26,16,29.74,29.59,21,6,24,0.00
2013-2-14,73.7,58.9,41.6,27.1,24.4,22.6,51,28,15,29.68,29.53,22,7,26,0.00
2013-2-15,77.5,64.2,52.6,26.1,21.9,15.4,34,21,10,29.74,29.59,15,8,26,0.00
2013-2-16,78.9,63.6,49.3,20.9,17.9,11.1,31,18,8,29.71,29.44,11,5,14,0.00
2013-2-17,76.7,61.6,46.3,30.0,19.4,14.9,32,20,11,29.44,29.32,19,6,22,0.00
2013-2-18,75.5,61.5,45.3,29.1,24.1,18.7,41,25,12,29.50,29.35,9,3,12,0.00
2013-2-19,66.4,57.0,45.5,41.9,32.6,27.5,71,41,23,29.35,29.21,21,8,25,0.00
2013-2-20,56.3,50.8,43.9,41.6,31.9,23.3,82,50,28,29.41,29.15,22,9,29,0.01
2013-2-21,62.5,49.6,36.3,42.7,34.7,28.5,80,58,29,29.56,29.41,14,6,19,0.00
2013-2-22,65.4,52.1,36.9,39.1,27.4,13.6,93,47,14,29.68,29.53,17,6,22,0.00
2013-2-23,70.1,56.1,39.9,28.3,21.4,14.2,49,28,12,29.62,29.29,16,6,21,0.00
2013-2-24,62.5,55.6,49.3,23.1,7.3,1.6,32,14,9,29.65,29.35,34,17,44,0.00
2013-2-25,67.3,55.1,41.4,13.7,9.3,6.2,27,16,9,29.71,29.50,14,6,19,0.00
2013-2-26,70.8,56.0,40.1,16.4,10.7,5.3,31,17,9,29.59,29.44,23,9,28,0.00
2013-2-27,67.3,57.7,44.5,10.5,4.5,-3.0,24,12,6,29.74,29.59,22,12,32,0.00
2013-2-28,74.6,60.9,47.7,8.5,4.7,-0.5,15,10,6,29.83,29.71,19,10,23,0.00
2013-3-1,82.0,60.7,45.6,22.0,18.2,8.1,30,20,9,29.83,29.68,15,4,22,0.00
2013-3-2,86.7,64.1,50.9,27.0,24.6,19.7,35,23,10,29.74,29.47,10,4,60,0.53
2013-3-3,78.2,63.7,51.8,34.2,27.5,21.2,36,26,12,29.53,29.35,10,4,12,0.00
2013-3-4,78.6,63.2,54.8,38.5,35.5,26.1,49,36,20,29.53,29.35,16,4,23,0.00
2013-3-5,80.2,62.6,52.4,38.7,35.9,32.0,56,38,18,29.59,29.41,12,4,19,0.00
2013-3-6,78.5,61.2,51.0,38.7,35.3,21.4,57,40,13,29.50,29.35,12,5,15,0.00
2013-3-7,74.1,60.8,50.6,38.0,34.9,29.8,55,38,20,29.44,29.26,16,5,22,0.00
2013-3-8,63.9,53.0,48.1,47.7,36.3,29.5,87,54,30,29.47,29.26,25,6,32,0.01
2013-3-9,67.9,57.8,46.3,38.2,34.9,31.9,72,44,27,29.59,29.44,20,7,27,0.00
2013-3-10,74.4,62.1,47.8,38.3,30.0,22.2,66,33,15,29.68,29.56,21,8,37,0.00
2013-3-11,80.6,61.7,48.4,27.4,24.6,19.4,40,25,10,29.65,29.47,14,4,18,0.00
2013-3-12,86.9,66.6,49.6,28.9,25.9,23.3,42,22,10,29.59,29.47,12,3,25,0.00
2013-3-13,91.6,72.1,56.8,31.0,28.2,25.8,32,20,10,29.62,29.47,12,4,19,0.00
2013-3-14,95.8,74.3,60.6,37.0,30.1,27.2,28,20,9,29.56,29.41,11,3,15,0.00
2013-3-15,94.6,75.5,61.6,36.5,31.2,25.3,29,20,8,29.47,29.29,13,4,16,0.00
2013-3-16,90.1,73.4,62.0,37.7,31.6,24.9,32,22,10,29.35,29.21,15,4,18,0.00
2013-3-17,107.6,71.6,59.8,47.1,35.1,15.2,45,29,6,29.38,27.17,18,5,40,0.00
2013-3-18,83.9,68.9,58.6,45.6,39.1,24.8,49,35,11,29.47,29.32,16,5,20,0.00
2013-3-19,85.3,70.3,59.4,47.4,38.0,26.6,48,32,13,29.47,29.38,16,4,20,0.00
2013-3-20,87.4,73.0,59.5,40.8,34.6,26.3,45,25,11,29.50,29.26,18,7,23,0.00
2013-3-21,86.2,70.3,61.6,42.4,36.8,29.9,41,30,14,29.29,29.15,16,6,20,0.00
2013-3-22,86.0,67.7,56.1,40.1,27.5,14.5,47,24,7,29.29,29.15,20,6,25,0.00
2013-3-23,79.2,64.0,54.4,39.4,8.7,3.4,41,12,5,29.50,29.26,21,9,26,0.00
2013-3-24,81.8,64.1,52.2,12.1,6.9,3.3,15,10,5,29.50,29.35,14,5,18,0.00
2013-3-25,86.0,69.6,53.8,19.9,14.2,5.6,18,12,6,29.47,29.32,11,4,17,0.00
2013-3-26,89.0,71.3,58.5,34.7,23.1,12.9,28,17,8,29.38,29.26,19,5,24,0.00
2013-3-27,85.6,71.3,61.0,34.6,29.0,19.9,33,21,9,29.41,29.29,16,5,21,0.00
2013-3-28,85.3,70.7,60.5,36.5,32.1,26.7,37,25,12,29.50,29.38,14,4,18,0.00
2013-3-29,87.3,73.3,58.8,39.3,31.1,27.5,34,21,12,29.56,29.44,13,4,17,0.00
2013-3-30,89.3,73.4,64.3,38.4,30.4,20.6,32,21,8,29.50,29.38,14,4,18,0.00
2013-3-31,86.5,70.2,59.9,41.2,36.8,32.7,46,30,17,29.50,29.35,20,7,24,0.00
2013-4-1,81.6,66.2,55.4,43.3,37.3,20.1,55,37,11,29.50,29.35,17,5,22,0.00
2013-4-2,85.8,68.3,56.3,43.2,30.7,23.7,56,27,10,29.47,29.35,20,5,25,0.00
2013-4-3,91.1,72.9,59.7,36.1,28.7,24.4,27,20,9,29.50,29.38,18,5,25,0.00
2013-4-4,91.1,75.6,62.9,39.3,33.7,25.1,34,23,9,29.50,29.35,15,6,19,0.00
2013-4-5,87.6,72.4,63.0,42.2,36.6,23.7,40,28,10,29.44,29.29,18,6,26,0.00
2013-4-6,89.3,72.2,59.4,45.8,39.5,25.1,47,32,11,29.44,29.26,16,5,19,0.00
2013-4-7,88.8,72.5,62.8,47.6,41.5,29.6,55,35,12,29.35,29.09,16,6,21,0.00
2013-4-8,79.0,63.6,57.4,57.7,38.4,29.6,72,41,17,29.18,28.94,35,14,44,0.00
2013-4-9,76.2,64.7,56.3,37.5,20.6,11.8,44,19,10,29.44,29.12,24,11,30,0.00
2013-4-10,78.9,65.0,57.0,21.4,14.5,9.9,22,14,7,29.53,29.38,25,9,33,0.00
2013-4-11,88.8,70.0,55.1,23.7,17.7,10.2,18,13,8,29.44,29.18,18,6,22,0.00
2013-4-12,89.2,72.8,59.8,38.6,27.7,14.9,34,20,8,29.29,29.18,16,4,20,0.00
2013-4-13,90.9,72.3,61.4,46.4,38.6,25.3,53,33,10,29.29,29.15,23,6,27,0.00
2013-4-14,88.1,70.2,59.6,52.8,45.1,32.1,70,45,14,29.21,29.09,21,8,27,0.00
2013-4-15,83.2,65.6,57.7,52.8,39.8,33.4,78,40,18,29.26,29.12,22,9,30,0.00
2013-4-16,74.8,61.1,54.6,38.1,32.7,19.1,50,36,12,29.35,29.21,22,10,29,0.00
2013-4-17,75.0,61.0,52.2,38.1,15.1,7.0,50,19,9,29.59,29.32,25,8,32,0.00
2013-4-18,75.3,62.8,48.7,15.9,9.4,5.9,18,12,8,29.68,29.56,22,9,40,0.00
2013-4-19,85.7,67.0,54.3,22.6,12.6,5.9,17,12,5,29.65,29.38,15,5,21,0.00
2013-4-20,91.9,73.6,57.1,29.3,20.9,11.6,19,14,6,29.44,29.32,14,5,22,0.00
2013-4-21,94.6,75.9,59.5,28.1,20.2,14.3,22,12,6,29.47,29.32,18,5,25,0.00
2013-4-22,94.7,75.5,62.7,31.8,24.2,13.6,26,15,8,29.38,29.21,21,6,25,0.00
2013-4-23,91.6,73.6,63.7,37.6,10.5,-4.7,31,10,3,29.35,29.23,25,7,32,0.00
2013-4-24,92.0,73.2,60.6,45.5,23.9,-2.6,50,19,5,29.38,29.23,19,7,24,0.00
2013-4-25,82.4,69.3,60.2,46.9,40.8,28.7,52,37,20,29.50,29.23,19,7,33,0.00
2013-4-26,90.6,74.2,59.2,46.8,39.7,33.7,52,30,13,29.59,29.47,15,5,19,0.00
2013-4-27,98.3,78.7,63.4,40.7,24.7,15.4,36,15,5,29.53,29.29,21,6,34,0.00
2013-4-28,102.6,86.3,66.5,25.8,20.0,15.3,15,9,4,29.35,29.18,17,7,24,0.00
2013-4-29,102.3,82.8,68.6,31.3,24.6,12.1,18,12,4,29.23,29.12,19,6,27,0.00
2013-4-30,99.4,80.0,69.1,35.1,25.4,18.1,27,14,5,29.23,29.12,23,6,29,0.00
2013-5-1,96.4,78.8,65.1,43.7,18.9,1.8,38,13,3,29.50,29.21,22,10,29,0.00
2013-5-2,90.9,77.4,68.6,12.0,8.9,2.5,9,7,4,29.65,29.41,27,12,35,0.00
2013-5-3,95.6,79.8,64.4,20.3,15.0,8.0,10,8,5,29.47,29.18,20,6,27,0.00
2013-5-4,95.5,77.8,68.9,43.0,25.1,12.1,30,15,7,29.23,29.09,24,7,31,0.00
2013-5-5,88.8,72.0,62.7,45.7,37.3,24.5,52,31,11,29.35,29.21,24,7,28,0.00
2013-5-6,82.5,69.2,61.8,45.9,42.9,40.1,54,39,23,29.44,29.32,22,9,28,0.00
2013-5-7,79.4,66.8,59.9,42.9,40.8,37.1,49,39,25,29.50,29.35,19,8,25,0.00
2013-5-8,81.3,68.5,56.5,46.3,40.4,25.9,52,38,14,29.53,29.41,16,5,21,0.00
2013-5-9,85.6,72.0,59.5,48.4,41.5,31.7,52,35,16,29.47,29.35,14,5,19,0.00
2013-5-10,94.1,78.0,64.4,48.0,38.2,29.2,52,26,10,29.47,29.38,20,6,28,0.00
2013-5-11,99.0,83.2,69.8,39.3,30.5,25.9,28,15,8,29.50,29.41,18,5,24,0.00
2013-5-12,103.1,85.7,71.8,32.8,28.9,24.3,18,13,6,29.53,29.35,17,5,24,0.00
2013-5-13,104.6,87.3,74.6,33.9,29.8,25.1,18,13,7,29.47,29.29,15,6,21,0.00
2013-5-14,102.5,84.2,72.4,47.7,39.2,29.0,39,22,9,29.38,29.23,20,7,26,0.00
2013-5-15,98.0,81.5,70.4,46.8,35.6,20.1,40,20,7,29.41,29.23,18,6,23,0.00
2013-5-16,99.1,80.9,71.0,44.0,36.6,26.7,31,21,8,29.29,29.18,20,7,25,0.00
2013-5-17,92.2,76.7,68.0,47.0,40.4,29.2,45,29,11,29.35,29.23,18,8,24,0.00
2013-5-18,91.1,76.3,66.7,47.0,41.1,31.7,46,29,13,29.41,29.29,17,6,22,0.00
2013-5-19,93.5,79.3,68.7,44.8,39.4,27.5,35,25,10,29.38,29.23,14,5,20,0.00
2013-5-20,94.6,79.4,66.8,43.0,22.8,14.1,40,13,7,29.38,29.29,25,8,42,0.00
2013-5-21,99.6,82.9,65.6,35.5,26.8,14.1,19,13,6,29.35,29.18,20,6,24,0.00
2013-5-22,101.0,81.2,69.8,45.6,22.9,10.3,24,12,6,29.23,29.06,23,6,29,0.00
2013-5-23,94.1,77.1,67.0,25.0,19.2,11.1,17,11,5,29.29,29.18,18,5,23,0.00
2013-5-24,94.5,76.8,65.3,51.7,38.5,19.1,52,29,9,29.35,29.26,17,6,22,0.00
2013-5-25,96.5,78.7,66.7,51.6,33.2,21.8,51,21,8,29.38,29.26,19,5,28,0.00
2013-5-26,93.2,79.2,69.7,41.3,32.4,17.0,29,19,6,29.41,29.29,16,7,20,0.00
2013-5-27,93.6,78.8,70.9,41.9,38.1,28.3,31,24,10,29.35,29.15,16,6,21,0.00
2013-5-28,94.3,79.7,70.0,49.1,43.9,37.2,43,29,14,29.21,29.06,20,8,28,0.00
2013-5-29,97.1,80.3,70.4,50.8,47.3,37.5,47,33,13,29.21,29.09,20,7,26,0.00
2013-5-30,96.5,79.7,70.4,55.5,51.1,44.5,53,38,19,29.29,29.18,22,5,28,0.00
2013-5-31,98.4,83.7,72.6,56.0,52.0,46.6,52,34,17,29.35,29.21,17,5,27,0.00
2013-6-1,106.2,89.2,75.4,56.0,44.4,35.5,43,22,9,29.26,29.15,14,4,19,0.00
2013-6-2,106.9,88.3,76.7,47.4,35.1,26.6,25,16,7,29.21,29.09,19,5,24,0.00
2013-6-3,103.4,84.7,75.4,45.3,36.1,30.4,32,18,9,29.26,29.12,18,6,23,0.00
2013-6-4,102.2,84.8,72.6,45.2,37.2,31.1,29,19,8,29.29,29.21,16,5,25,0.00
2013-6-5,103.4,88.2,73.4,39.4,34.8,24.4,24,16,6,29.32,29.23,16,6,21,0.00
2013-6-6,107.7,90.7,81.1,41.6,35.7,25.4,19,15,6,29.26,29.12,17,5,22,0.00
2013-6-7,109.4,90.0,77.4,40.2,34.7,27.2,19,14,6,29.21,29.09,18,6,23,0.00
2013-6-8,105.1,86.3,75.8,52.2,40.6,26.2,32,21,9,29.26,29.12,21,6,26,0.00
2013-6-9,104.9,85.2,73.9,50.7,33.9,21.7,40,17,7,29.32,29.21,20,6,25,0.00
2013-6-10,108.1,87.7,73.7,40.8,29.6,20.6,20,13,4,29.29,29.18,19,6,25,0.00
2013-6-11,106.1,91.7,77.2,42.4,34.3,22.3,19,14,6,29.32,29.23,12,4,18,0.00
2013-6-12,107.3,90.4,78.7,46.9,40.9,35.2,25,18,10,29.35,29.23,17,6,23,0.00
2013-6-13,104.1,88.0,78.1,48.5,40.9,32.5,29,20,9,29.38,29.21,17,6,21,0.00
2013-6-14,104.5,86.9,76.1,45.2,39.8,29.9,28,20,8,29.32,29.15,19,5,22,0.00
2013-6-15,103.6,87.0,76.5,44.6,31.6,23.7,27,14,7,29.32,29.21,16,6,26,0.00
2013-6-16,104.4,87.7,76.2,41.6,29.2,14.4,22,13,4,29.38,29.26,17,5,23,0.00
2013-6-17,106.3,88.7,74.1,41.5,34.7,24.5,23,15,7,29.35,29.21,20,5,27,0.00
2013-6-18,106.2,87.9,74.5,40.2,34.1,26.5,23,15,6,29.29,29.15,20,7,34,0.00
2013-6-19,104.5,87.4,75.1,48.2,34.3,19.5,33,17,5,29.23,29.12,20,6,24,0.00
2013-6-20,103.3,86.4,75.0,51.4,39.6,25.0,43,21,6,29.26,29.15,17,6,24,0.00
2013-6-21,102.7,86.4,74.8,51.3,38.2,29.5,33,19,8,29.29,29.15,18,6,23,0.00
2013-6-22,103.7,86.8,75.6,53.4,38.6,24.0,36,20,6,29.29,29.15,16,6,22,0.00
2013-6-23,102.0,86.1,74.3,53.3,39.3,31.4,36,20,9,29.23,29.09,18,6,24,0.00
2013-6-24,99.6,84.7,74.7,50.9,43.5,29.4,39,25,8,29.29,29.18,17,5,21,0.00
2013-6-25,100.5,87.3,74.7,57.0,45.8,39.5,41,24,12,29.35,29.23,16,6,20,0.00
2013-6-26,105.3,88.2,77.8,50.3,41.8,31.8,29,21,9,29.41,29.32,17,6,20,0.00
2013-6-27,107.5,91.2,76.5,59.9,50.3,34.8,37,26,11,29.47,29.32,14,5,25,0.00
2013-6-28,116.7,98.6,83.5,59.9,45.8,35.1,37,18,7,29.35,29.15,18,6,25,0.00
2013-6-29,111.1,95.7,87.9,54.6,49.6,40.1,30,22,9,29.23,29.15,20,6,25,0.00
2013-6-30,111.2,95.7,87.2,58.6,55.4,48.4,33,26,13,29.26,29.12,21,8,30,0.00
2013-7-1,111.4,95.7,88.6,62.0,55.8,48.1,40,27,13,29.32,29.18,23,7,30,0.00
2013-7-2,108.5,97.9,87.4,63.4,54.5,46.8,39,24,13,29.44,29.21,26,11,34,0.00
2013-7-7,110.5,100.2,88.9,63.7,55.3,46.7,43,24,12,29.32,29.21,20,13,28,0.00
2013-7-8,110.5,92.7,85.1,65.0,59.6,46.8,49,35,12,29.38,29.21,20,10,26,0.00
2013-7-9,102.5,89.6,83.8,69.8,65.3,59.8,57,45,27,29.47,29.29,21,10,26,0.00
2013-7-10,100.8,88.2,82.5,69.4,64.1,59.0,63,46,26,29.44,29.26,21,9,32,0.00
2013-7-11,86.5,83.8,78.9,69.8,64.9,62.8,72,53,46,29.35,29.32,12,6,16,0.00
2013-7-16,106.7,102.1,94.6,59.7,53.0,46.1,25,19,15,29.38,29.29,15,7,21,0.00
2013-7-17,106.7,95.8,89.6,59.6,50.1,46.1,25,21,15,29.38,29.29,15,5,21,0.00
2013-7-18,109.6,99.0,88.5,57.6,52.7,47.4,28,21,15,29.35,29.18,21,7,28,0.00
2013-7-23,105.1,99.0,89.3,61.2,58.9,56.3,38,26,20,29.35,29.21,17,8,24,0.00
2013-7-24,105.0,93.7,87.2,61.2,57.7,53.0,38,30,21,29.35,29.21,17,8,24,0.00
2013-7-25,98.6,90.1,79.9,68.6,62.0,53.0,66,39,27,29.41,28.50,14,4,18,0.00
2013-7-26,104.8,92.9,86.9,67.1,57.4,53.1,51,31,18,29.47,29.32,15,5,21,0.00
2013-7-27,106.1,92.8,85.8,57.6,54.7,48.0,37,28,17,29.38,29.18,20,6,24,0.00
2013-7-28,106.3,91.6,81.6,57.4,42.1,31.5,37,19,9,29.26,29.15,18,6,24,0.00
2013-7-29,89.0,83.7,80.0,38.2,36.9,33.3,21,18,14,29.29,29.23,8,4,11,0.00
2013-7-30,106.4,92.0,84.8,50.0,47.4,40.8,29,22,11,29.47,29.35,18,6,23,0.00
2013-7-31,106.6,93.4,83.1,49.8,43.2,36.2,30,18,13,29.44,29.29,14,5,19,0.00
2013-8-1,107.7,96.5,84.8,47.8,40.8,26.6,25,15,9,29.35,29.21,23,7,34,0.00
2013-8-2,105.7,93.3,80.4,54.0,39.5,26.4,37,16,8,29.35,29.21,19,7,27,0.00
2013-8-3,106.0,93.0,78.2,51.1,37.3,15.2,30,15,4,29.38,29.23,17,7,22,0.00
2013-8-4,107.9,93.9,78.9,51.2,34.4,21.4,34,15,5,29.38,29.23,15,6,19,0.00
2013-8-5,101.8,89.6,79.0,59.7,43.1,30.7,28,20,12,29.41,29.29,20,5,25,0.00
2013-8-6,101.5,91.4,81.8,59.1,52.0,38.5,44,27,17,29.44,29.29,19,7,29,0.00
2013-8-7,103.8,88.7,80.9,55.4,38.9,15.2,40,20,4,29.41,29.29,17,6,21,0.00
2013-8-8,99.2,86.1,79.2,42.7,37.1,31.7,22,18,9,29.35,29.29,12,4,16,0.00
2013-8-9,105.0,88.7,78.5,53.8,37.9,23.1,40,20,6,29.32,29.21,18,6,24,0.00
2013-8-10,102.1,85.6,73.8,53.8,33.0,11.3,40,17,4,29.38,29.26,18,6,24,0.00
2013-8-11,103.8,86.0,72.3,47.1,35.1,22.5,31,18,5,29.38,29.23,13,4,20,0.00
2013-8-12,104.4,87.3,73.3,47.0,34.0,28.8,31,15,7,29.35,29.23,17,5,23,0.00
2013-8-13,105.4,88.5,75.7,53.0,40.9,22.9,37,21,6,29.41,29.23,14,5,18,0.00
2013-8-14,106.6,91.1,79.1,58.7,49.8,28.2,39,26,7,29.38,29.21,17,5,20,0.00
2013-8-15,109.3,94.4,84.5,61.1,54.1,43.4,37,27,12,29.35,29.23,15,5,21,0.00
2013-8-16,110.0,95.5,87.1,61.1,54.1,47.4,37,25,14,29.35,29.21,18,6,24,0.00
2013-8-17,110.6,97.1,85.0,54.8,49.9,41.1,31,21,11,29.35,29.15,30,11,40,0.00
2013-8-18,109.4,96.5,89.2,56.5,52.2,48.3,29,23,14,29.32,29.18,30,8,39,0.00
2013-8-19,106.7,94.6,86.7,56.5,51.1,47.5,33,23,14,29.35,29.21,15,5,19,0.00
2013-8-20,109.3,94.9,85.6,61.9,50.5,40.2,31,23,10,29.32,29.18,18,6,22,0.00
2013-8-21,108.0,94.2,85.4,69.5,55.5,44.1,57,29,12,29.32,29.23,17,5,26,0.00
2013-8-22,105.6,94.3,86.0,69.5,61.1,55.1,57,34,20,29.35,29.21,27,4,36,0.00
2013-8-23,360.1,88.4,89.1,62.4,55.9,32.0,99,33,28,29.32,0.00,34,7,67,0.00
2013-8-24,84.0,83.4,82.9,67.0,66.4,65.9,58,56,54,29.44,29.44,10,9,13,0.00
2013-8-25,96.4,89.0,77.2,67.9,62.2,59.4,73,42,30,29.41,29.26,21,16,28,0.07
2013-8-26,370.4,88.8,77.2,99.9,62.7,57.8,71,41,31,29.41,0.24,208,14,74,0.00
2013-8-27,102.7,90.0,78.7,67.7,64.2,58.2,67,44,23,29.32,29.18,11,4,18,0.00
2013-8-28,105.3,87.5,75.3,72.0,66.1,57.0,84,54,21,29.38,29.18,42,8,28,0.00
2013-8-29,93.9,83.2,75.5,74.3,70.6,66.2,84,66,40,29.50,29.35,22,5,28,0.01
2013-8-30,95.6,86.5,81.0,74.2,69.3,60.8,77,58,33,29.50,29.35,13,3,18,0.00
2013-8-31,101.2,90.2,82.9,74.0,64.7,60.9,71,44,27,29.41,29.26,25,5,32,0.00
2013-9-1,104.5,92.4,84.8,65.5,60.5,52.6,50,35,18,29.35,29.21,16,5,21,0.00
2013-9-2,105.0,94.5,85.0,63.6,60.3,56.7,47,33,21,29.35,29.21,16,5,24,0.00
2013-9-17,100.5,93.3,81.9,51.5,42.3,25.5,26,17,9,29.18,29.06,14,5,17,0.00
2013-9-18,100.5,84.7,75.4,51.5,44.3,25.5,38,25,9,29.18,29.06,13,4,17,0.00
2013-9-19,100.4,83.8,71.9,64.1,49.9,33.1,60,36,9,29.23,29.15,11,3,13,0.00
2013-9-20,101.6,84.2,73.3,64.1,52.6,36.1,62,36,11,29.26,29.15,16,5,22,0.00
2013-9-21,99.7,82.7,73.5,56.0,46.0,33.7,48,29,14,29.26,29.09,20,8,25,0.00
2013-9-22,87.7,74.4,65.9,46.2,33.0,20.6,40,23,9,29.26,29.12,20,7,25,0.00
2013-9-23,94.9,77.9,64.4,35.2,31.7,26.5,31,19,9,29.35,29.23,13,5,19,0.00
2013-9-24,96.2,79.4,66.4,58.3,43.8,26.1,60,32,9,29.41,29.21,13,5,17,0.00
2013-9-25,93.2,77.3,66.8,58.3,33.9,15.6,67,24,11,29.26,29.06,18,6,22,0.00
2013-9-26,84.9,71.9,63.1,34.5,25.6,15.7,27,18,10,29.29,29.09,19,6,24,0.00
2013-9-27,83.3,73.0,61.1,32.1,22.1,17.9,26,15,9,29.41,29.23,25,10,32,0.00
2013-9-28,91.7,77.2,62.1,27.3,22.2,15.9,23,13,6,29.53,29.41,12,5,16,0.00
2013-9-29,94.1,79.3,62.5,32.9,25.4,18.5,23,14,8,29.53,29.38,10,4,14,0.00
2013-9-30,94.0,76.7,64.1,49.8,39.8,28.7,49,30,10,29.41,29.26,13,4,26,0.00
2013-10-1,94.3,78.4,65.0,49.9,42.1,35.9,51,29,14,29.38,29.26,16,5,24,0.00
2013-10-2,92.4,83.9,71.2,51.2,45.7,36.9,41,26,17,29.38,29.23,16,8,22,0.00
2013-10-3,91.5,79.1,63.3,61.6,46.7,33.3,66,36,13,29.29,29.15,17,6,21,0.00
2013-10-4,83.1,74.2,67.0,46.8,17.2,8.2,39,12,6,29.50,29.23,29,17,38,0.00
2013-10-5,83.6,72.9,63.1,19.2,16.8,13.6,17,12,7,29.65,29.50,23,13,27,0.00
2013-10-6,92.2,76.9,60.6,20.5,15.6,10.2,19,10,5,29.59,29.44,16,8,25,0.00
2013-10-7,76.9,67.3,60.9,18.9,13.8,10.7,17,12,9,29.44,29.41,8,4,9,0.00
2013-10-8,90.6,83.1,71.8,50.5,30.7,17.1,46,17,7,29.35,29.15,15,6,18,0.00
2013-10-9,75.6,67.9,60.3,50.5,38.9,35.6,49,35,24,29.23,29.15,20,10,28,0.00
2013-10-10,73.4,61.7,55.6,43.7,33.7,29.9,54,36,21,29.44,29.23,22,5,31,0.00
2013-10-11,68.9,58.0,53.2,33.4,32.0,30.3,45,37,26,29.50,29.44,5,3,6,0.00
2013-10-13,84.4,76.8,64.7,26.5,24.0,20.7,23,14,10,29.44,29.38,18,8,23,0.00
2013-10-14,84.4,69.9,64.2,26.4,24.6,20.7,23,18,10,29.44,29.38,18,8,23,0.00
2013-10-15,83.2,68.2,58.0,28.0,22.6,18.3,29,18,9,29.47,29.35,19,8,25,0.00
2013-10-16,81.5,65.4,56.7,25.2,22.4,20.0,26,20,10,29.56,29.44,22,6,28,0.00
2013-10-17,84.5,64.7,51.8,24.5,17.6,12.7,30,17,7,29.53,29.35,12,4,14,0.00
2013-10-18,87.9,67.3,53.2,20.4,17.3,12.7,23,15,7,29.47,29.38,18,5,22,0.00
2013-10-19,89.5,69.1,57.3,21.9,18.2,15.6,20,14,7,29.50,29.38,14,4,18,0.00
2013-10-20,90.9,70.9,54.9,35.3,24.7,11.2,33,19,5,29.41,29.29,12,4,15,0.00
2013-10-21,90.4,69.8,56.1,35.3,22.8,17.8,33,17,7,29.44,29.35,7,3,10,0.00
2013-10-22,84.4,66.7,57.3,22.7,20.5,17.8,22,17,9,29.47,29.41,7,3,10,0.00
2013-10-23,87.5,78.5,61.9,40.3,33.9,25.3,31,20,11,29.41,29.32,8,4,12,0.00
2013-10-24,87.5,70.9,60.0,40.5,35.7,25.5,44,29,11,29.44,29.32,8,4,12,0.00
2013-10-25,90.6,70.6,57.8,53.1,32.2,19.2,67,26,7,29.53,29.41,11,4,14,0.00
2013-10-26,91.9,71.1,59.9,30.7,27.8,23.9,28,20,9,29.56,29.35,8,3,12,0.00
2013-10-27,90.1,71.9,59.7,37.1,31.8,25.3,36,24,9,29.41,29.21,16,5,19,0.00
2013-10-28,80.9,65.7,54.8,45.8,38.7,33.8,48,37,18,29.35,29.21,22,8,29,0.00
2013-10-29,70.9,59.6,51.0,40.1,37.1,33.9,56,43,27,29.41,29.35,17,5,24,0.00
2013-10-30,73.5,58.3,48.4,39.8,29.6,24.8,61,35,18,29.53,29.41,15,4,22,0.00
2013-10-31,77.5,59.8,46.9,27.4,23.4,18.7,42,25,11,29.62,29.47,15,4,19,0.00
2013-11-1,81.8,62.5,48.9,27.5,24.0,21.7,34,23,11,29.62,29.44,10,3,13,0.00
2013-11-2,83.1,65.3,50.5,34.5,25.6,22.3,34,23,11,29.47,29.26,12,3,14,0.00
2013-11-3,81.5,63.2,52.9,29.6,26.0,20.7,38,25,10,29.35,29.18,16,5,22,0.00
2013-11-4,77.6,63.2,51.7,43.1,28.4,22.8,40,27,15,29.41,29.18,19,8,25,0.00
2013-11-5,71.5,60.1,54.7,27.2,13.8,9.2,27,16,10,29.68,29.29,25,13,30,0.00
2013-11-6,75.8,60.6,54.1,12.6,9.9,8.1,17,13,8,29.74,29.59,19,9,23,0.00
2013-11-7,84.1,63.8,52.1,15.6,10.4,6.2,18,12,5,29.65,29.53,14,7,19,0.00
2013-11-12,89.1,80.4,65.2,40.0,36.7,33.3,32,21,14,29.53,29.38,16,5,19,0.00
2013-11-13,89.1,69.2,60.7,39.6,36.2,32.9,41,31,14,29.53,29.38,16,4,19,0.00
2013-11-14,86.1,68.6,59.6,38.3,33.2,25.0,43,28,11,29.47,29.15,8,4,9,0.00
2013-11-15,83.0,64.1,53.5,50.3,40.1,32.5,57,42,20,29.23,29.00,20,7,29,0.00
2013-11-16,72.8,58.7,51.1,40.1,37.3,34.8,59,45,26,29.41,29.15,15,4,19,0.00
2013-11-17,72.6,59.0,50.2,48.2,41.2,35.2,62,52,32,29.53,29.35,13,4,17,0.00
2013-11-18,77.1,60.7,52.4,44.2,41.6,39.6,63,50,28,29.59,29.41,10,4,12,0.00
2013-11-19,74.9,60.8,52.2,45.4,41.4,39.0,67,49,30,29.50,29.32,12,3,15,0.00
2013-11-20,73.9,61.1,54.9,52.4,44.0,38.4,68,55,27,29.38,29.26,15,4,25,0.00
2013-11-21,73.1,62.9,55.4,55.1,48.1,44.9,86,59,38,29.41,29.29,34,5,42,0.04
2013-11-27,55.4,54.3,53.5,42.8,42.2,41.2,67,63,58,29.53,29.53,4,2,4,0.00
2013-11-28,53.3,50.4,48.3,44.4,43.2,41.6,83,76,67,29.56,29.53,5,3,6,0.00
2013-12-2,74.7,70.2,62.9,45.0,39.5,35.0,52,33,23,29.29,29.12,12,7,16,0.00
2013-12-3,74.7,59.8,46.7,53.9,33.1,-99.9,77,38,24,29.41,29.12,22,13,28,0.00
2013-12-4,61.2,56.1,45.6,45.3,31.1,17.7,67,40,25,29.44,29.18,25,12,34,0.00
2013-12-5,56.5,44.7,37.1,26.3,19.9,11.8,58,38,17,29.62,29.44,13,5,17,0.00
2013-12-6,56.9,44.7,36.3,29.3,25.1,12.1,68,48,18,29.68,29.53,14,4,19,0.00
2013-12-7,59.5,48.7,38.4,37.5,30.9,25.6,68,51,28,29.56,29.38,29,7,36,0.00
2013-12-8,55.6,44.2,35.3,37.3,13.7,5.7,64,30,17,29.71,29.47,19,7,23,0.00
2013-12-9,51.6,41.9,34.4,10.7,4.1,-0.3,35,20,11,29.85,29.65,27,14,34,0.00
2013-12-10,55.7,45.8,38.3,7.8,5.6,1.1,24,19,11,29.83,29.59,26,14,31,0.00
2013-12-11,62.2,51.7,43.0,15.1,12.2,5.9,24,20,12,29.71,29.59,22,13,26,0.00
2013-12-12,64.9,50.8,42.8,30.6,23.0,13.7,59,36,14,29.68,29.56,18,6,23,0.00
2013-12-13,66.3,51.9,40.8,30.6,23.8,18.5,62,34,19,29.71,29.56,14,5,20,0.00
2013-12-14,66.2,56.0,46.9,23.4,19.4,15.9,38,24,14,29.83,29.65,22,11,28,0.00
2013-12-15,69.2,57.9,46.5,23.4,20.8,17.6,37,24,14,29.80,29.65,20,11,25,0.00
2013-12-16,75.3,60.4,48.0,24.8,22.5,20.0,37,24,13,29.71,29.59,16,8,20,0.00
2013-12-17,77.4,60.0,49.7,29.3,25.2,21.9,41,27,12,29.68,29.44,16,6,19,0.00
2013-12-18,72.7,55.8,46.9,40.6,32.1,23.4,76,43,15,29.53,29.21,10,4,12,0.00
2013-12-19,67.4,53.9,43.9,46.9,41.5,32.0,86,65,29,29.26,29.15,15,6,20,0.01
2013-12-20,63.7,50.2,42.5,46.8,35.7,25.9,90,59,27,29.35,29.15,17,5,22,0.00
2013-12-21,63.2,49.4,39.8,43.2,38.8,28.1,88,69,32,29.56,29.32,13,4,18,0.00
2013-12-22,64.8,49.7,42.3,46.5,41.7,34.4,89,75,45,29.77,29.50,7,3,11,0.00
2013-12-23,68.8,53.5,41.0,44.3,29.5,23.7,84,42,19,29.85,29.68,14,7,19,0.00
2013-12-24,70.9,57.5,48.5,33.2,29.3,25.4,46,34,19,29.74,29.59,18,9,23,0.00
2013-12-25,70.2,56.8,46.9,32.4,18.0,9.7,43,22,11,29.77,29.65,20,10,27,0.00
2013-12-26,57.4,51.2,46.0,16.8,14.4,9.8,30,23,14,29.68,29.68,13,7,16,0.00
2013-12-27,65.1,53.6,44.8,33.0,26.0,18.7,53,34,19,29.59,29.41,10,4,13,0.00
2013-12-28,67.6,56.0,42.6,29.8,18.4,11.0,59,25,12,29.62,29.44,34,12,42,0.00
2013-12-29,69.3,56.3,45.2,23.8,13.9,9.6,41,19,9,29.77,29.62,15,6,19,0.00
2013-12-30,69.5,52.7,39.4,23.2,18.6,14.4,47,28,12,29.71,29.56,6,3,9,0.00
2014-1-1,71.2,56.3,43.2,21.7,18.0,13.4,38,23,10,29.65,29.53,13,4,16,0.00
2014-1-2,73.8,53.8,28.7,33.6,23.4,15.5,48,31,13,29.65,1.22,608,3,608,0.71